Time;durP1;ratioP1;P1;durP2;ratioP2;P2;SDS_P1;SDS_P2;PMS_P1;PMS_P2;Temp;Humidity;BMP_temperature;BMP_pressure;BME280_temperature;BME280_humidity;BME280_pressure;Samples;Min_cycle;Max_cycle;Signal;HPM_P1;HPM_P2
2021/01/04 00:00:07;;;;;;;3.60;2.33;;;;;10.00;101528.00;;;;5007909;28;20205;-78
2021/01/04 00:02:54;;;;;;;4.85;2.75;;;;;10.00;101528.00;;;;5010511;28;20193;-77
2021/01/04 00:05:30;;;;;;;3.53;2.60;;;;;10.10;101526.00;;;;5009623;28;20201;-78
2021/01/04 00:08:39;;;;;;;3.75;2.38;;;;;10.00;101518.00;;;;5010623;28;20196;-78
2021/01/04 00:11:35;;;;;;;3.30;2.40;;;;;10.00;101509.00;;;;5007076;28;20259;-77
2021/01/04 00:14:15;;;;;;;3.83;2.30;;;;;10.00;101507.00;;;;5010613;28;20197;-78
2021/01/04 00:16:53;;;;;;;4.85;2.65;;;;;10.00;101512.00;;;;5010035;28;20221;-78
2021/01/04 00:19:28;;;;;;;3.90;2.08;;;;;10.00;101516.00;;;;4999611;28;20193;-78
2021/01/04 00:22:03;;;;;;;4.20;2.13;;;;;10.00;101513.00;;;;5008289;28;20200;-78
2021/01/04 00:24:38;;;;;;;5.55;2.92;;;;;10.00;101506.00;;;;5010371;28;20568;-78
2021/01/04 00:27:10;;;;;;;5.60;2.78;;;;;10.00;101505.00;;;;5010164;28;20215;-78
2021/01/04 00:29:38;;;;;;;2.70;1.90;;;;;10.00;101504.00;;;;5009861;28;20201;-78
2021/01/04 00:32:21;;;;;;;4.45;2.58;;;;;10.00;101510.00;;;;5009474;28;20858;-78
2021/01/04 00:34:53;;;;;;;3.78;2.47;;;;;10.00;101504.00;;;;5009058;28;20231;-76
2021/01/04 00:38:01;;;;;;;3.33;2.40;;;;;10.00;101500.00;;;;5009752;28;20208;-78
2021/01/04 00:40:40;;;;;;;4.22;2.50;;;;;10.00;101507.00;;;;5009330;28;20201;-77
2021/01/04 00:43:12;;;;;;;4.03;2.60;;;;;10.00;101503.00;;;;4992036;28;20245;-77
2021/01/04 00:45:44;;;;;;;4.32;2.47;;;;;10.00;101495.00;;;;4989933;28;20217;-78
2021/01/04 00:48:17;;;;;;;3.92;2.75;;;;;10.00;101499.00;;;;4991419;28;20201;-78
2021/01/04 00:51:00;;;;;;;4.65;2.67;;;;;10.00;101497.00;;;;5008239;28;20201;-78
2021/01/04 00:53:30;;;;;;;3.50;2.55;;;;;10.00;101491.00;;;;4992952;28;20204;-78
2021/01/04 00:56:16;;;;;;;3.47;2.35;;;;;9.90;101495.00;;;;5009581;28;20310;-79
2021/01/04 00:59:04;;;;;;;4.70;2.78;;;;;9.90;101492.00;;;;5009503;28;20255;-78
2021/01/04 01:01:50;;;;;;;3.70;2.40;;;;;10.00;101500.00;;;;5001101;28;20208;-78
2021/01/04 01:04:28;;;;;;;3.65;2.42;;;;;9.90;101497.00;;;;4996537;28;20667;-78
2021/01/04 01:07:03;;;;;;;3.63;2.70;;;;;10.00;101489.00;;;;5008750;28;20200;-78
2021/01/04 01:09:33;;;;;;;3.30;2.03;;;;;10.00;101488.00;;;;5008216;28;20192;-77
2021/01/04 01:12:28;;;;;;;4.25;2.65;;;;;9.90;101496.00;;;;5007457;28;20320;-78
2021/01/04 01:15:18;;;;;;;3.55;2.25;;;;;9.90;101491.00;;;;5008630;28;20221;-78
2021/01/04 01:18:15;;;;;;;3.92;2.78;;;;;9.80;101488.00;;;;5007885;28;20193;-78
2021/01/04 01:20:51;;;;;;;4.93;2.80;;;;;9.90;101494.00;;;;4991157;28;20258;-78
2021/01/04 01:23:19;;;;;;;3.45;2.35;;;;;9.90;101494.00;;;;5008728;28;20251;-78
2021/01/04 01:25:50;;;;;;;4.28;2.65;;;;;9.90;101494.00;;;;5000885;28;20663;-78
2021/01/04 01:29:08;;;;;;;2.65;2.05;;;;;9.90;101498.00;;;;4989971;28;21153;-78
2021/01/04 01:32:21;;;;;;;3.83;2.42;;;;;9.80;101494.00;;;;4998549;28;20204;-78
2021/01/04 01:35:07;;;;;;;3.60;2.20;;;;;9.80;101495.00;;;;4947647;28;20572;-78
2021/01/04 01:38:14;;;;;;;3.58;2.90;;;;;9.80;101494.00;;;;4942971;28;20191;-78
2021/01/04 01:41:22;;;;;;;4.97;3.42;;;;;9.80;101499.00;;;;4998092;28;20196;-78
2021/01/04 01:44:02;;;;;;;8.73;5.60;;;;;9.90;101501.00;;;;5007691;28;20291;-78
2021/01/04 01:46:35;;;;;;;11.30;7.82;;;;;9.90;101502.00;;;;4993896;28;20255;-78
2021/01/04 01:49:19;;;;;;;12.57;8.25;;;;;9.90;101499.00;;;;5003489;28;20201;-77
2021/01/04 01:52:00;;;;;;;12.48;8.43;;;;;9.90;101500.00;;;;4991731;28;20205;-78
2021/01/04 01:54:54;;;;;;;14.52;8.50;;;;;9.90;101510.00;;;;5008443;28;20639;-78
2021/01/04 01:57:42;;;;;;;10.13;6.88;;;;;9.80;101508.00;;;;5008346;28;20228;-78
2021/01/04 02:00:18;;;;;;;10.60;6.57;;;;;9.90;101501.00;;;;5007680;28;20197;-78
2021/01/04 02:02:52;;;;;;;7.88;5.07;;;;;9.90;101503.00;;;;5009584;28;20232;-78
2021/01/04 02:05:37;;;;;;;7.55;4.40;;;;;9.90;101501.00;;;;5007738;28;20260;-78
2021/01/04 02:08:09;;;;;;;5.25;3.42;;;;;9.90;101500.00;;;;5008154;28;20576;-78
2021/01/04 02:10:39;;;;;;;4.13;2.95;;;;;9.90;101506.00;;;;5008296;28;20197;-77
2021/01/04 02:13:14;;;;;;;4.13;3.10;;;;;9.90;101495.00;;;;5008325;28;20555;-78
2021/01/04 02:15:49;;;;;;;3.95;2.67;;;;;9.90;101503.00;;;;5009055;28;20228;-78
2021/01/04 02:18:45;;;;;;;5.15;2.88;;;;;9.80;101507.00;;;;5007913;28;20212;-78
2021/01/04 02:21:49;;;;;;;3.95;2.50;;;;;9.80;101505.00;;;;4993688;28;20216;-78
2021/01/04 02:24:20;;;;;;;4.28;2.35;;;;;9.80;101508.00;;;;5012210;28;20247;-78
2021/01/04 02:26:55;;;;;;;2.65;2.30;;;;;9.80;101503.00;;;;4996298;28;20304;-78
2021/01/04 02:29:22;;;;;;;3.35;2.22;;;;;9.80;101499.00;;;;5012648;28;20196;-78
2021/01/04 02:31:54;;;;;;;3.00;2.25;;;;;9.80;101502.00;;;;5007918;28;20604;-78
2021/01/04 02:34:25;;;;;;;3.80;2.33;;;;;9.70;101511.00;;;;5012247;28;20213;-78
2021/01/04 02:36:55;;;;;;;4.07;2.58;;;;;9.70;101503.00;;;;5012481;28;20278;-78
2021/01/04 02:39:27;;;;;;;5.60;3.17;;;;;9.70;101500.00;;;;4996908;28;20603;-79
2021/01/04 02:42:02;;;;;;;5.88;3.10;;;;;9.70;101497.00;;;;5012528;28;20205;-79
2021/01/04 02:44:29;;;;;;;5.18;3.22;;;;;9.70;101504.00;;;;5012459;28;20283;-77
2021/01/04 02:47:14;;;;;;;4.60;2.42;;;;;9.70;101504.00;;;;5011065;28;20197;-78
2021/01/04 02:49:52;;;;;;;4.47;2.67;;;;;9.60;101500.00;;;;5010625;28;20212;-78
2021/01/04 02:52:30;;;;;;;4.55;2.42;;;;;9.70;101497.00;;;;5012590;28;20208;-78
2021/01/04 02:55:02;;;;;;;3.85;2.45;;;;;9.60;101508.00;;;;5015165;28;20759;-78
2021/01/04 02:57:36;;;;;;;4.65;2.78;;;;;9.70;101503.00;;;;5027370;28;20221;-78
2021/01/04 03:00:08;;;;;;;4.95;3.00;;;;;9.70;101503.00;;;;5012125;28;20193;-79
2021/01/04 03:02:39;;;;;;;3.25;2.00;;;;;9.70;101502.00;;;;5017269;28;20578;-78
2021/01/04 03:05:08;;;;;;;3.92;2.13;;;;;9.70;101498.00;;;;5012325;28;20662;-77
2021/01/04 03:07:35;;;;;;;3.50;2.58;;;;;9.70;101500.00;;;;5011442;28;20238;-77
2021/01/04 03:10:11;;;;;;;4.30;2.72;;;;;9.70;101501.00;;;;5011420;28;20200;-78
2021/01/04 03:12:38;;;;;;;3.40;2.33;;;;;9.70;101494.00;;;;5011344;28;20196;-78
2021/01/04 03:15:19;;;;;;;4.55;2.78;;;;;9.60;101507.00;;;;5011813;28;20229;-78
2021/01/04 03:18:03;;;;;;;3.92;2.63;;;;;9.60;101504.00;;;;5011069;28;20666;-77
2021/01/04 03:20:30;;;;;;;3.97;2.70;;;;;9.70;101491.00;;;;5011890;28;20236;-78
2021/01/04 03:22:56;;;;;;;3.45;2.35;;;;;9.70;101496.00;;;;5011403;28;20192;-78
2021/01/04 03:25:34;;;;;;;3.53;2.33;;;;;9.60;101494.00;;;;5010428;28;20201;-78
2021/01/04 03:28:02;;;;;;;3.92;2.25;;;;;9.70;101503.00;;;;5011094;28;20235;-78
2021/01/04 03:30:29;;;;;;;2.80;1.98;;;;;9.70;101500.00;;;;5011557;28;20205;-78
2021/01/04 03:32:56;;;;;;;3.88;2.15;;;;;9.70;101500.00;;;;5010836;28;20193;-77
2021/01/04 03:35:24;;;;;;;4.10;2.45;;;;;9.70;101492.00;;;;5009926;28;20764;-78
2021/01/04 03:37:51;;;;;;;3.20;1.83;;;;;9.70;101498.00;;;;5011273;28;20200;-78
2021/01/04 03:40:18;;;;;;;3.65;2.30;;;;;9.70;101500.00;;;;5011107;28;20209;-78
2021/01/04 03:42:45;;;;;;;3.45;1.75;;;;;9.70;101498.00;;;;4995680;28;20217;-77
2021/01/04 03:45:14;;;;;;;3.55;2.42;;;;;9.70;101494.00;;;;4993440;28;20213;-78
2021/01/04 03:47:41;;;;;;;2.50;2.15;;;;;9.70;101494.00;;;;5010488;28;20201;-78
2021/01/04 03:50:09;;;;;;;3.90;2.15;;;;;9.70;101492.00;;;;5010526;28;20678;-78
2021/01/04 03:52:36;;;;;;;3.85;2.40;;;;;9.80;101495.00;;;;5011028;28;20215;-78
2021/01/04 03:55:03;;;;;;;3.25;2.42;;;;;9.80;101494.00;;;;5010723;28;20225;-78
2021/01/04 03:57:30;;;;;;;3.13;2.38;;;;;9.80;101489.00;;;;5010527;28;20228;-78
2021/01/04 03:59:57;;;;;;;3.00;2.22;;;;;9.80;101492.00;;;;5009933;28;20208;-77
2021/01/04 04:02:24;;;;;;;3.95;2.10;;;;;9.80;101488.00;;;;5010253;28;20212;-77
2021/01/04 04:04:50;;;;;;;3.30;2.33;;;;;9.80;101488.00;;;;5010711;28;20201;-78
2021/01/04 04:07:17;;;;;;;3.65;2.78;;;;;9.80;101494.00;;;;5010165;28;20199;-78
2021/01/04 04:09:47;;;;;;;3.63;2.75;;;;;9.80;101491.00;;;;5010604;28;20205;-77
2021/01/04 04:12:13;;;;;;;3.35;2.35;;;;;9.80;101494.00;;;;5010334;28;20280;-78
2021/01/04 04:14:40;;;;;;;3.55;2.55;;;;;9.80;101494.00;;;;5010261;28;20271;-78
2021/01/04 04:17:08;;;;;;;3.67;2.75;;;;;9.80;101502.00;;;;5009413;28;20229;-77
2021/01/04 04:19:34;;;;;;;3.35;2.70;;;;;9.80;101492.00;;;;5010204;28;20587;-78
2021/01/04 04:22:01;;;;;;;4.63;3.22;;;;;9.80;101492.00;;;;5010377;28;20196;-77
2021/01/04 04:24:28;;;;;;;3.35;2.50;;;;;9.80;101489.00;;;;5009901;28;20201;-78
2021/01/04 04:26:54;;;;;;;5.38;3.25;;;;;9.80;101490.00;;;;4990102;28;20403;-78
2021/01/04 04:29:21;;;;;;;2.97;2.50;;;;;9.80;101501.00;;;;4991630;28;20252;-77
2021/01/04 04:31:49;;;;;;;4.32;2.53;;;;;9.80;101491.00;;;;5010176;28;20193;-77
2021/01/04 04:34:17;;;;;;;4.05;3.05;;;;;9.80;101492.00;;;;5010079;28;20209;-78
2021/01/04 04:36:44;;;;;;;3.95;2.58;;;;;9.80;101486.00;;;;5029550;28;20232;-77
2021/01/04 04:39:13;;;;;;;6.43;2.58;;;;;9.90;101496.00;;;;5029588;28;20331;-77
2021/01/04 04:41:42;;;;;;;2.90;2.38;;;;;9.90;101500.00;;;;5010729;28;20197;-77
2021/01/04 04:44:18;;;;;;;3.88;2.45;;;;;9.90;101490.00;;;;5009051;28;20205;-77
2021/01/04 04:46:55;;;;;;;4.68;2.67;;;;;9.80;101493.00;;;;5009564;28;20197;-78
2021/01/04 04:49:46;;;;;;;3.75;2.47;;;;;9.80;101497.00;;;;5006173;28;20232;-78
2021/01/04 04:52:33;;;;;;;4.43;2.28;;;;;9.80;101505.00;;;;5005242;28;20197;-77
2021/01/04 04:55:09;;;;;;;3.85;2.50;;;;;9.80;101511.00;;;;5008672;28;20197;-77
2021/01/04 04:57:43;;;;;;;4.63;3.08;;;;;9.80;101505.00;;;;4990325;28;20237;-77
2021/01/04 05:00:21;;;;;;;4.60;2.10;;;;;9.80;101506.00;;;;4996853;28;20718;-78
2021/01/04 05:02:56;;;;;;;5.15;3.35;;;;;9.80;101504.00;;;;5010412;28;20290;-77
2021/01/04 05:05:30;;;;;;;2.97;2.17;;;;;9.80;101511.00;;;;5009909;28;20238;-77
2021/01/04 05:08:09;;;;;;;2.70;2.08;;;;;9.80;101510.00;;;;5008881;28;20568;-78
2021/01/04 05:10:39;;;;;;;3.15;2.55;;;;;9.80;101507.00;;;;5018668;28;20254;-78
2021/01/04 05:13:16;;;;;;;2.70;1.95;;;;;9.80;101509.00;;;;5014197;28;20197;-77
2021/01/04 05:15:55;;;;;;;3.95;2.90;;;;;9.80;101514.00;;;;4999005;28;20228;-77
2021/01/04 05:18:58;;;;;;;2.88;1.95;;;;;9.70;101513.00;;;;5008996;28;20200;-77
2021/01/04 05:21:58;;;;;;;4.32;2.55;;;;;9.70;101507.00;;;;5008868;28;20200;-78
2021/01/04 05:24:59;;;;;;;4.07;2.33;;;;;9.70;101510.00;;;;5008907;28;20209;-77
2021/01/04 05:27:55;;;;;;;3.92;2.53;;;;;9.70;101514.00;;;;4989501;28;20210;-77
2021/01/04 05:30:57;;;;;;;4.45;2.15;;;;;9.70;101517.00;;;;4982540;28;20208;-77
2021/01/04 05:33:41;;;;;;;2.90;2.05;;;;;9.70;101509.00;;;;4968648;28;20212;-76
2021/01/04 05:36:33;;;;;;;3.75;2.38;;;;;9.70;101521.00;;;;5009077;28;20224;-77
2021/01/04 05:39:07;;;;;;;4.20;2.60;;;;;9.80;101526.00;;;;5008444;28;20201;-77
2021/01/04 05:41:49;;;;;;;3.70;2.67;;;;;9.80;101528.00;;;;4996030;28;20201;-77
2021/01/04 05:44:41;;;;;;;4.18;2.72;;;;;9.80;101536.00;;;;5009355;28;20200;-77
2021/01/04 05:47:28;;;;;;;3.80;2.67;;;;;9.80;101535.00;;;;5009061;28;20232;-77
2021/01/04 05:49:59;;;;;;;2.28;2.08;;;;;9.80;101527.00;;;;5009068;28;20232;-77
2021/01/04 05:52:27;;;;;;;3.72;2.13;;;;;9.80;101535.00;;;;5016189;28;20199;-78
2021/01/04 05:54:54;;;;;;;4.93;2.92;;;;;9.80;101528.00;;;;5009388;28;20201;-77
2021/01/04 05:57:21;;;;;;;4.30;2.78;;;;;9.80;101532.00;;;;4999269;28;20239;-77
2021/01/04 05:59:51;;;;;;;3.38;2.53;;;;;9.80;101532.00;;;;5009278;28;20213;-78
2021/01/04 06:02:26;;;;;;;3.35;2.40;;;;;9.80;101540.00;;;;5008310;28;20201;-78
2021/01/04 06:04:53;;;;;;;3.60;2.60;;;;;9.90;101540.00;;;;5009231;28;20208;-77
2021/01/04 06:07:20;;;;;;;5.15;2.55;;;;;9.90;101539.00;;;;5009201;28;20197;-77
2021/01/04 06:09:57;;;;;;;5.22;3.40;;;;;9.80;101538.00;;;;5008611;28;20216;-77
2021/01/04 06:12:34;;;;;;;2.95;2.10;;;;;9.80;101552.00;;;;5008412;28;20201;-77
2021/01/04 06:15:04;;;;;;;4.22;2.92;;;;;9.90;101546.00;;;;4998440;28;20201;-77
2021/01/04 06:17:35;;;;;;;3.70;2.53;;;;;9.80;101547.00;;;;4997397;28;20201;-77
2021/01/04 06:20:18;;;;;;;4.55;2.67;;;;;9.80;101551.00;;;;5008334;28;20197;-77
2021/01/04 06:22:45;;;;;;;3.65;2.50;;;;;9.90;101547.00;;;;5008527;28;20201;-77
2021/01/04 06:25:16;;;;;;;4.03;2.70;;;;;9.80;101551.00;;;;5008290;28;20201;-78
2021/01/04 06:27:45;;;;;;;4.78;2.58;;;;;9.90;101554.00;;;;5008191;28;20204;-77
2021/01/04 06:30:24;;;;;;;3.92;2.60;;;;;9.80;101554.00;;;;5008254;28;20605;-77
2021/01/04 06:32:53;;;;;;;3.53;2.40;;;;;9.90;101551.00;;;;4988550;28;20208;-77
2021/01/04 06:35:24;;;;;;;5.03;3.13;;;;;9.80;101562.00;;;;4989695;28;20263;-77
2021/01/04 06:38:02;;;;;;;4.43;2.58;;;;;9.90;101557.00;;;;5007560;28;20227;-77
2021/01/04 06:40:34;;;;;;;4.85;2.72;;;;;9.80;101561.00;;;;5008052;28;20215;-77
2021/01/04 06:43:10;;;;;;;3.95;2.35;;;;;9.80;101569.00;;;;4988540;28;20208;-77
2021/01/04 06:45:48;;;;;;;5.40;2.85;;;;;9.80;101555.00;;;;4990487;28;20288;-78
2021/01/04 06:48:18;;;;;;;4.03;2.60;;;;;9.90;101566.00;;;;5007068;28;20243;-77
2021/01/04 06:51:00;;;;;;;3.70;2.72;;;;;9.80;101557.00;;;;5008018;28;20583;-78
2021/01/04 06:54:06;;;;;;;3.67;2.40;;;;;9.80;101567.00;;;;5019118;28;20573;-78
2021/01/04 06:57:04;;;;;;;3.80;2.55;;;;;9.70;101569.00;;;;4993104;28;20229;-77
2021/01/04 06:59:59;;;;;;;4.53;2.63;;;;;9.70;101571.00;;;;5008259;28;20523;-78
2021/01/04 07:03:04;;;;;;;2.70;2.05;;;;;9.70;101567.00;;;;5007740;28;20197;-77
2021/01/04 07:05:59;;;;;;;4.00;2.30;;;;;9.80;101579.00;;;;5004843;28;20213;-78
2021/01/04 07:08:59;;;;;;;3.78;2.42;;;;;9.70;101575.00;;;;4983637;28;20216;-78
2021/01/04 07:11:39;;;;;;;3.60;2.40;;;;;9.80;101574.00;;;;5021909;28;20193;-78
2021/01/04 07:14:33;;;;;;;3.53;2.45;;;;;9.80;101581.00;;;;5035222;28;20218;-78
2021/01/04 07:17:20;;;;;;;4.05;2.28;;;;;9.70;101576.00;;;;4995432;28;20225;-79
2021/01/04 07:20:26;;;;;;;3.00;1.90;;;;;9.70;101579.00;;;;5007675;28;20197;-78
2021/01/04 07:23:17;;;;;;;3.72;2.38;;;;;9.70;101585.00;;;;5010203;28;20263;-77
2021/01/04 07:25:51;;;;;;;6.00;2.90;;;;;9.80;101588.00;;;;5009562;28;20642;-78
2021/01/04 07:28:34;;;;;;;3.80;2.20;;;;;9.70;101588.00;;;;5012378;28;20201;-79
2021/01/04 07:31:04;;;;;;;3.58;2.10;;;;;9.80;101591.00;;;;5008914;28;20205;-78
2021/01/04 07:33:37;;;;;;;4.47;2.83;;;;;9.80;101581.00;;;;5011343;28;20690;-80
2021/01/04 07:36:12;;;;;;;4.25;2.28;;;;;9.80;101589.00;;;;5011283;28;20217;-77
2021/01/04 07:38:49;;;;;;;3.97;2.55;;;;;9.80;101598.00;;;;5003607;28;20208;-76
2021/01/04 07:41:35;;;;;;;3.35;2.33;;;;;9.80;101599.00;;;;5010656;28;20243;-77
2021/01/04 07:44:34;;;;;;;3.25;2.13;;;;;9.80;101602.00;;;;5008536;28;20670;-77
2021/01/04 07:47:37;;;;;;;5.03;3.22;;;;;9.70;101592.00;;;;4995080;28;20201;-77
2021/01/04 07:50:33;;;;;;;4.60;2.70;;;;;9.80;101592.00;;;;5008475;28;20681;-78
2021/01/04 07:53:34;;;;;;;4.68;2.60;;;;;9.70;101601.00;;;;5005613;28;20186;-76
2021/01/04 07:56:38;;;;;;;3.85;2.42;;;;;9.70;101602.00;;;;5009634;28;20220;-77
2021/01/04 07:59:47;;;;;;;3.90;2.72;;;;;9.80;101605.00;;;;5010254;28;20232;-78
2021/01/04 08:02:56;;;;;;;2.47;1.80;;;;;9.80;101604.00;;;;5002698;28;20644;-77
2021/01/04 08:05:38;;;;;;;4.32;2.80;;;;;9.80;101612.00;;;;5008258;28;20216;-76
2021/01/04 08:08:33;;;;;;;4.70;3.03;;;;;9.90;101612.00;;;;4997334;28;20228;-77
2021/01/04 08:11:30;;;;;;;2.92;2.05;;;;;9.90;101615.00;;;;5001856;28;20197;-77
2021/01/04 08:14:28;;;;;;;3.72;2.35;;;;;9.90;101615.00;;;;5007263;28;20205;-76
2021/01/04 08:17:00;;;;;;;3.35;2.40;;;;;10.00;101625.00;;;;5007000;28;20873;-77
2021/01/04 08:19:29;;;;;;;4.32;2.42;;;;;10.00;101627.00;;;;5009191;28;20236;-77
2021/01/04 08:22:05;;;;;;;4.80;3.00;;;;;10.00;101630.00;;;;5007498;28;20210;-77
2021/01/04 08:24:39;;;;;;;4.40;2.60;;;;;10.00;101635.00;;;;5009921;28;20258;-78
2021/01/04 08:27:30;;;;;;;3.75;2.65;;;;;10.00;101628.00;;;;5004734;28;20200;-77
2021/01/04 08:30:07;;;;;;;4.38;2.63;;;;;10.00;101635.00;;;;4998644;28;20208;-78
2021/01/04 08:32:42;;;;;;;6.15;2.92;;;;;10.10;101634.00;;;;5007070;28;20200;-77
2021/01/04 08:35:13;;;;;;;5.65;2.97;;;;;10.10;101633.00;;;;5003203;28;20542;-77
2021/01/04 08:37:41;;;;;;;4.43;2.53;;;;;10.10;101642.00;;;;5006812;28;20204;-78
2021/01/04 08:40:22;;;;;;;4.45;2.70;;;;;10.00;101641.00;;;;5015380;28;20240;-78
2021/01/04 08:43:04;;;;;;;4.22;2.75;;;;;10.10;101650.00;;;;5008051;28;20651;-77
2021/01/04 08:45:35;;;;;;;5.22;2.50;;;;;10.10;101651.00;;;;5006120;28;20201;-79
2021/01/04 08:48:14;;;;;;;3.22;2.42;;;;;10.10;101655.00;;;;5004908;28;20201;-77
2021/01/04 08:50:45;;;;;;;4.70;2.70;;;;;10.10;101652.00;;;;5007990;28;20201;-76
2021/01/04 08:53:17;;;;;;;3.55;2.28;;;;;10.10;101662.00;;;;5004057;28;20469;-77
2021/01/04 08:55:45;;;;;;;4.30;2.42;;;;;10.20;101664.00;;;;5008025;28;20233;-77
2021/01/04 08:58:37;;;;;;;3.35;2.25;;;;;10.10;101660.00;;;;5005104;28;20235;-77
2021/01/04 09:01:16;;;;;;;3.67;2.15;;;;;10.20;101667.00;;;;5012699;28;20203;-77
2021/01/04 09:03:43;;;;;;;3.60;2.40;;;;;10.20;101658.00;;;;5007167;28;20204;-79
2021/01/04 09:06:12;;;;;;;4.40;2.70;;;;;10.20;101671.00;;;;5004980;28;20385;-79
2021/01/04 09:08:47;;;;;;;3.47;2.38;;;;;10.10;101664.00;;;;5008341;28;21779;-77
2021/01/04 09:11:16;;;;;;;3.53;2.30;;;;;10.20;101665.00;;;;5009080;28;20628;-77
2021/01/04 09:13:44;;;;;;;3.40;2.20;;;;;10.20;101671.00;;;;5009817;28;21000;-77
2021/01/04 09:16:17;;;;;;;3.72;2.40;;;;;10.10;101664.00;;;;5007535;28;20235;-77
2021/01/04 09:18:48;;;;;;;4.65;2.70;;;;;10.10;101675.00;;;;5002671;28;20220;-77
2021/01/04 09:21:32;;;;;;;3.45;2.40;;;;;10.10;101665.00;;;;5007217;28;20199;-78
2021/01/04 09:24:09;;;;;;;3.42;2.40;;;;;10.10;101675.00;;;;5000012;28;20243;-77
2021/01/04 09:26:39;;;;;;;3.55;2.67;;;;;10.20;101676.00;;;;5004106;28;20205;-76
2021/01/04 09:29:20;;;;;;;3.83;2.63;;;;;10.10;101679.00;;;;5003135;28;20312;-77
2021/01/04 09:31:49;;;;;;;3.03;2.30;;;;;10.20;101677.00;;;;5006328;28;20543;-76
2021/01/04 09:34:18;;;;;;;3.38;2.47;;;;;10.20;101670.00;;;;5008229;28;20208;-77
2021/01/04 09:36:45;;;;;;;3.58;2.60;;;;;10.20;101670.00;;;;5007057;28;20287;-77
2021/01/04 09:39:13;;;;;;;5.03;2.90;;;;;10.20;101677.00;;;;5007745;28;20208;-77
2021/01/04 09:41:42;;;;;;;3.83;2.33;;;;;10.20;101678.00;;;;5004029;28;20577;-77
2021/01/04 09:44:11;;;;;;;3.35;2.58;;;;;10.30;101673.00;;;;5007859;28;20662;-77
2021/01/04 09:46:49;;;;;;;3.60;2.58;;;;;10.20;101677.00;;;;5007355;28;20231;-78
2021/01/04 09:49:20;;;;;;;4.15;2.50;;;;;10.30;101672.00;;;;5007390;28;20200;-76
2021/01/04 09:51:50;;;;;;;5.25;2.80;;;;;10.30;101674.00;;;;5006831;28;20201;-78
2021/01/04 09:54:22;;;;;;;3.22;2.03;;;;;10.30;101681.00;;;;5007906;28;20200;-77
2021/01/04 09:56:51;;;;;;;2.50;1.75;;;;;10.40;101678.00;;;;5003270;28;20601;-78
2021/01/04 09:59:23;;;;;;;3.17;2.42;;;;;10.30;101681.00;;;;5003313;28;20601;-77
2021/01/04 10:01:52;;;;;;;5.68;2.10;;;;;10.40;101683.00;;;;5007783;28;20931;-77
2021/01/04 10:04:30;;;;;;;5.05;2.47;;;;;10.30;101689.00;;;;5003824;28;20667;-77
2021/01/04 10:06:58;;;;;;;3.20;2.45;;;;;10.40;101682.00;;;;5007402;28;20599;-78
2021/01/04 10:09:30;;;;;;;2.90;2.28;;;;;10.40;101688.00;;;;5007610;28;20678;-77
2021/01/04 10:12:02;;;;;;;5.20;2.30;;;;;10.40;101692.00;;;;4991857;28;20576;-77
2021/01/04 10:14:29;;;;;;;4.00;2.35;;;;;10.50;101683.00;;;;5008249;28;20208;-77
2021/01/04 10:16:59;;;;;;;2.40;1.73;;;;;10.40;101689.00;;;;5007291;28;20235;-77
2021/01/04 10:19:32;;;;;;;3.83;2.47;;;;;10.40;101679.00;;;;5004887;28;20693;-76
2021/01/04 10:22:06;;;;;;;2.63;1.88;;;;;10.40;101684.00;;;;5005028;28;20204;-76
2021/01/04 10:24:38;;;;;;;2.72;2.03;;;;;10.40;101685.00;;;;5007111;28;20193;-76
2021/01/04 10:27:07;;;;;;;2.45;1.80;;;;;10.40;101691.00;;;;5000489;28;20742;-76
2021/01/04 10:29:40;;;;;;;2.42;2.03;;;;;10.40;101684.00;;;;5006167;28;20255;-76
2021/01/04 10:32:10;;;;;;;3.17;2.10;;;;;10.50;101692.00;;;;5007259;28;20197;-75
2021/01/04 10:34:43;;;;;;;3.88;2.13;;;;;10.40;101683.00;;;;5007265;28;20197;-74
2021/01/04 10:37:38;;;;;;;2.67;1.92;;;;;10.40;101679.00;;;;5006894;28;20228;-74
2021/01/04 10:40:08;;;;;;;3.00;1.80;;;;;10.50;101679.00;;;;5003004;28;20841;-75
2021/01/04 10:42:38;;;;;;;2.72;1.90;;;;;10.50;101678.00;;;;5004841;28;20200;-76
2021/01/04 10:45:13;;;;;;;3.60;1.95;;;;;10.50;101678.00;;;;5009633;28;20201;-75
2021/01/04 10:47:52;;;;;;;2.85;2.22;;;;;10.50;101674.00;;;;5010764;28;20552;-77
2021/01/04 10:50:21;;;;;;;3.83;2.20;;;;;10.50;101674.00;;;;5010616;28;20211;-77
2021/01/04 10:53:00;;;;;;;4.32;2.10;;;;;10.50;101675.00;;;;5008589;28;20218;-78
2021/01/04 10:55:28;;;;;;;2.55;2.10;;;;;10.50;101669.00;;;;5010558;28;20205;-78
2021/01/04 10:58:07;;;;;;;2.17;1.88;;;;;10.50;101665.00;;;;4996030;28;20236;-77
2021/01/04 11:00:38;;;;;;;3.20;2.17;;;;;10.60;101666.00;;;;5011330;28;20237;-80
2021/01/04 11:03:13;;;;;;;4.15;2.20;;;;;10.50;101669.00;;;;5007456;28;20201;-77
2021/01/04 11:05:42;;;;;;;3.95;2.58;;;;;10.60;101672.00;;;;5005341;28;20197;-77
2021/01/04 11:08:28;;;;;;;2.50;2.10;;;;;10.50;101663.00;;;;5011541;28;20203;-77
2021/01/04 11:10:58;;;;;;;2.55;2.05;;;;;10.60;101658.00;;;;5001914;28;20205;-80
2021/01/04 11:13:28;;;;;;;2.20;1.65;;;;;10.60;101654.00;;;;5012370;28;20201;-78
2021/01/04 11:16:06;;;;;;;3.47;2.03;;;;;10.60;101662.00;;;;5009151;28;20235;-79
2021/01/04 11:18:33;;;;;;;6.38;1.85;;;;;10.70;101655.00;;;;5011687;28;20211;-76
2021/01/04 11:21:00;;;;;;;2.33;1.73;;;;;10.70;101648.00;;;;5010671;28;20204;-78
2021/01/04 11:23:26;;;;;;;2.75;1.65;;;;;10.80;101648.00;;;;5011199;28;20205;-78
2021/01/04 11:25:53;;;;;;;2.30;1.65;;;;;10.80;101652.00;;;;5006967;28;20197;-78
2021/01/04 11:28:20;;;;;;;2.00;1.80;;;;;10.80;101644.00;;;;5011130;28;20251;-78
2021/01/04 11:30:48;;;;;;;1.90;1.55;;;;;10.80;101654.00;;;;5004327;28;20548;-77
2021/01/04 11:33:15;;;;;;;2.92;1.75;;;;;10.80;101649.00;;;;5013542;28;20566;-78
2021/01/04 11:35:42;;;;;;;3.95;1.55;;;;;10.90;101643.00;;;;5010474;28;20211;-78
2021/01/04 11:38:09;;;;;;;2.70;1.88;;;;;10.90;101646.00;;;;5010376;28;20551;-79
2021/01/04 11:40:36;;;;;;;2.25;1.65;;;;;10.90;101655.00;;;;5010254;28;20205;-78
2021/01/04 11:43:03;;;;;;;3.88;1.80;;;;;10.90;101648.00;;;;5010242;28;20197;-77
2021/01/04 11:45:30;;;;;;;5.78;1.67;;;;;10.90;101642.00;;;;5011134;28;20232;-79
2021/01/04 11:47:58;;;;;;;2.13;1.23;;;;;10.90;101638.00;;;;5010324;28;20201;-77
2021/01/04 11:50:25;;;;;;;2.50;1.45;;;;;10.90;101635.00;;;;5010906;28;20205;-76
2021/01/04 11:52:56;;;;;;;2.70;1.50;;;;;10.90;101626.00;;;;5009031;28;20209;-76
2021/01/04 11:55:23;;;;;;;3.20;1.55;;;;;11.00;101635.00;;;;5008791;28;20201;-78
2021/01/04 11:57:49;;;;;;;4.05;1.58;;;;;11.00;101632.00;;;;5009684;28;20836;-78
2021/01/04 12:00:19;;;;;;;3.30;1.75;;;;;11.00;101640.00;;;;5010632;28;20217;-78
2021/01/04 12:02:46;;;;;;;3.88;2.00;;;;;11.00;101633.00;;;;5009497;28;20216;-78
2021/01/04 12:05:15;;;;;;;2.00;1.42;;;;;11.00;101637.00;;;;5010585;28;20782;-77
2021/01/04 12:07:42;;;;;;;4.78;1.60;;;;;11.00;101627.00;;;;5009592;28;20193;-76
2021/01/04 12:10:10;;;;;;;2.75;1.80;;;;;11.00;101632.00;;;;5007848;28;20582;-77
2021/01/04 12:12:37;;;;;;;4.65;1.73;;;;;11.00;101630.00;;;;5004636;28;20201;-79
2021/01/04 12:15:05;;;;;;;2.40;1.63;;;;;11.00;101626.00;;;;5008882;28;20205;-77
2021/01/04 12:17:32;;;;;;;3.08;1.83;;;;;11.00;101635.00;;;;5008650;28;20235;-78
2021/01/04 12:19:59;;;;;;;2.00;1.70;;;;;11.00;101627.00;;;;5006073;28;20201;-77
2021/01/04 12:22:27;;;;;;;2.55;1.70;;;;;11.00;101629.00;;;;5008726;28;20212;-77
2021/01/04 12:24:54;;;;;;;1.50;1.25;;;;;11.00;101630.00;;;;5008984;28;20216;-78
2021/01/04 12:27:20;;;;;;;1.80;1.27;;;;;11.00;101628.00;;;;5009273;28;20201;-79
2021/01/04 12:29:49;;;;;;;2.03;1.58;;;;;10.90;101619.00;;;;5005583;28;20288;-77
2021/01/04 12:32:18;;;;;;;2.50;1.48;;;;;10.90;101622.00;;;;5005252;28;20211;-76
2021/01/04 12:34:46;;;;;;;2.25;1.48;;;;;10.90;101619.00;;;;5007850;28;20617;-77
2021/01/04 12:37:13;;;;;;;2.88;1.80;;;;;10.90;101615.00;;;;5007243;28;20227;-78
2021/01/04 12:39:40;;;;;;;2.75;1.50;;;;;10.90;101614.00;;;;5004649;28;20201;-77
2021/01/04 12:42:07;;;;;;;2.15;1.50;;;;;10.90;101612.00;;;;5005860;28;20209;-77
2021/01/04 12:44:34;;;;;;;2.03;1.40;;;;;10.90;101607.00;;;;5006838;28;20208;-77
2021/01/04 12:47:01;;;;;;;1.67;1.40;;;;;10.90;101615.00;;;;5001435;28;20207;-77
2021/01/04 12:49:28;;;;;;;1.65;1.33;;;;;10.90;101614.00;;;;4993106;28;20580;-76
2021/01/04 12:51:57;;;;;;;1.98;1.38;;;;;10.90;101603.00;;;;4999635;28;20781;-77
2021/01/04 12:54:26;;;;;;;2.85;1.55;;;;;10.90;101599.00;;;;5003414;28;20213;-77
2021/01/04 12:56:55;;;;;;;1.58;1.15;;;;;10.90;101601.00;;;;5004088;28;20228;-78